sensor_id;sensor_type;location;lat;lon;timestamp;temperature;humidity
34877;DHT22;21086;44.780;17.194;2022-08-01T00:12:34;21.10;99.90
34877;DHT22;21086;44.780;17.194;2022-08-01T00:30:45;20.90;99.90
34877;DHT22;21086;44.780;17.194;2022-08-01T00:33:12;20.80;99.90
34877;DHT22;21086;44.780;17.194;2022-08-01T00:35:39;20.90;99.90
34877;DHT22;21086;44.780;17.194;2022-08-01T00:40:51;20.90;99.90
34877;DHT22;21086;44.780;17.194;2022-08-01T00:43:18;21.00;99.90
34877;DHT22;21086;44.780;17.194;2022-08-01T00:45:45;21.00;99.90
34877;DHT22;21086;44.780;17.194;2022-08-01T00:59:03;20.40;99.90
34877;DHT22;21086;44.780;17.194;2022-08-01T01:01:30;20.30;99.90
34877;DHT22;21086;44.780;17.194;2022-08-01T01:04:05;20.10;99.90
34877;DHT22;21086;44.780;17.194;2022-08-01T01:23:40;19.60;99.90
34877;DHT22;21086;44.780;17.194;2022-08-01T01:29:09;20.90;99.90
34877;DHT22;21086;44.780;17.194;2022-08-01T01:31:57;19.80;99.90
34877;DHT22;21086;44.780;17.194;2022-08-01T01:34:26;19.80;99.90
34877;DHT22;21086;44.780;17.194;2022-08-01T01:36:56;18.60;99.90
34877;DHT22;21086;44.780;17.194;2022-08-01T01:39:25;19.70;99.90
34877;DHT22;21086;44.780;17.194;2022-08-01T02:15:14;19.80;99.90
34877;DHT22;21086;44.780;17.194;2022-08-01T02:17:45;19.60;99.90
34877;DHT22;21086;44.780;17.194;2022-08-01T02:22:55;19.50;99.90
34877;DHT22;21086;44.780;17.194;2022-08-01T02:28:21;19.40;99.90
34877;DHT22;21086;44.780;17.194;2022-08-01T02:37:16;19.30;99.90
34877;DHT22;21086;44.780;17.194;2022-08-01T02:43:12;19.30;99.90
34877;DHT22;21086;44.780;17.194;2022-08-01T02:45:49;19.20;99.90
34877;DHT22;21086;44.780;17.194;2022-08-01T02:48:19;19.20;99.90
34877;DHT22;21086;44.780;17.194;2022-08-01T02:50:48;19.10;99.90
34877;DHT22;21086;44.780;17.194;2022-08-01T03:11:59;18.90;99.90
34877;DHT22;21086;44.780;17.194;2022-08-01T03:14:28;18.80;99.90
34877;DHT22;21086;44.780;17.194;2022-08-01T03:16:58;18.80;99.90
34877;DHT22;21086;44.780;17.194;2022-08-01T03:24:58;18.40;99.90
34877;DHT22;21086;44.780;17.194;2022-08-01T03:37:03;18.50;99.90
34877;DHT22;21086;44.780;17.194;2022-08-01T03:50:23;18.50;99.90
34877;DHT22;21086;44.780;17.194;2022-08-01T03:58:31;18.40;99.90
34877;DHT22;21086;44.780;17.194;2022-08-01T04:06:46;18.40;99.90
34877;DHT22;21086;44.780;17.194;2022-08-01T04:09:15;18.40;99.90
34877;DHT22;21086;44.780;17.194;2022-08-01T04:11:42;18.50;99.90
34877;DHT22;21086;44.780;17.194;2022-08-01T04:17:22;18.50;99.90
34877;DHT22;21086;44.780;17.194;2022-08-01T04:19:49;18.50;99.90
34877;DHT22;21086;44.780;17.194;2022-08-01T04:22:16;17.70;99.90
34877;DHT22;21086;44.780;17.194;2022-08-01T04:30:08;19.00;99.90
34877;DHT22;21086;44.780;17.194;2022-08-01T04:32:44;19.20;99.90
34877;DHT22;21086;44.780;17.194;2022-08-01T04:35:14;19.30;99.90
34877;DHT22;21086;44.780;17.194;2022-08-01T04:40:49;19.30;99.90
34877;DHT22;21086;44.780;17.194;2022-08-01T04:43:18;19.30;99.90
34877;DHT22;21086;44.780;17.194;2022-08-01T04:45:47;19.10;99.90
34877;DHT22;21086;44.780;17.194;2022-08-01T04:51:49;19.10;99.90
34877;DHT22;21086;44.780;17.194;2022-08-01T04:57:32;19.30;99.90
34877;DHT22;21086;44.780;17.194;2022-08-01T05:09:30;19.80;99.90
34877;DHT22;21086;44.780;17.194;2022-08-01T05:17:19;20.20;99.90
34877;DHT22;21086;44.780;17.194;2022-08-01T05:27:52;20.70;99.90
34877;DHT22;21086;44.780;17.194;2022-08-01T05:30:19;20.70;99.90
34877;DHT22;21086;44.780;17.194;2022-08-01T05:32:46;20.70;99.90
34877;DHT22;21086;44.780;17.194;2022-08-01T05:35:13;20.90;99.90
34877;DHT22;21086;44.780;17.194;2022-08-01T05:40:16;21.10;99.90
34877;DHT22;21086;44.780;17.194;2022-08-01T06:15:36;22.20;99.90
34877;DHT22;21086;44.780;17.194;2022-08-01T06:59:23;23.20;99.90
34877;DHT22;21086;44.780;17.194;2022-08-01T07:12:03;23.90;99.90
34877;DHT22;21086;44.780;17.194;2022-08-01T07:14:31;23.60;99.90
34877;DHT22;21086;44.780;17.194;2022-08-01T07:49:37;25.40;99.90
34877;DHT22;21086;44.780;17.194;2022-08-01T07:52:07;25.50;99.90
34877;DHT22;21086;44.780;17.194;2022-08-01T08:06:21;26.90;99.90
34877;DHT22;21086;44.780;17.194;2022-08-01T08:08:50;27.20;99.90
34877;DHT22;21086;44.780;17.194;2022-08-01T08:11:20;27.00;99.90
34877;DHT22;21086;44.780;17.194;2022-08-01T08:13:47;27.10;99.90
34877;DHT22;21086;44.780;17.194;2022-08-01T08:16:15;26.90;99.90
34877;DHT22;21086;44.780;17.194;2022-08-01T08:18:42;28.00;99.90
34877;DHT22;21086;44.780;17.194;2022-08-01T08:21:09;28.00;99.90
34877;DHT22;21086;44.780;17.194;2022-08-01T08:23:37;28.20;99.90
34877;DHT22;21086;44.780;17.194;2022-08-01T08:26:24;28.10;99.90
34877;DHT22;21086;44.780;17.194;2022-08-01T08:28:54;27.50;99.90
34877;DHT22;21086;44.780;17.194;2022-08-01T08:31:22;26.80;99.90
34877;DHT22;21086;44.780;17.194;2022-08-01T08:34:09;27.80;99.90
34877;DHT22;21086;44.780;17.194;2022-08-01T08:36:38;27.30;99.90
34877;DHT22;21086;44.780;17.194;2022-08-01T08:39:49;26.80;99.90
34877;DHT22;21086;44.780;17.194;2022-08-01T08:45:19;27.70;99.90
34877;DHT22;21086;44.780;17.194;2022-08-01T08:54:22;27.90;99.90
34877;DHT22;21086;44.780;17.194;2022-08-01T08:56:58;27.30;99.90
34877;DHT22;21086;44.780;17.194;2022-08-01T09:10:02;27.00;99.90
34877;DHT22;21086;44.780;17.194;2022-08-01T09:12:30;28.10;99.90
34877;DHT22;21086;44.780;17.194;2022-08-01T09:14:57;28.20;99.90
34877;DHT22;21086;44.780;17.194;2022-08-01T09:26:36;28.60;99.90
34877;DHT22;21086;44.780;17.194;2022-08-01T09:35:26;28.60;99.90
34877;DHT22;21086;44.780;17.194;2022-08-01T09:38:20;28.40;99.90
34877;DHT22;21086;44.780;17.194;2022-08-01T09:40:52;28.30;99.90
34877;DHT22;21086;44.780;17.194;2022-08-01T09:43:24;28.70;99.90
34877;DHT22;21086;44.780;17.194;2022-08-01T09:51:39;28.80;99.90
34877;DHT22;21086;44.780;17.194;2022-08-01T10:00:24;29.00;99.90
34877;DHT22;21086;44.780;17.194;2022-08-01T10:11:28;29.50;99.90
34877;DHT22;21086;44.780;17.194;2022-08-01T10:14:02;29.50;99.90
34877;DHT22;21086;44.780;17.194;2022-08-01T10:59:29;32.30;99.90
34877;DHT22;21086;44.780;17.194;2022-08-01T11:02:28;32.50;99.90
34877;DHT22;21086;44.780;17.194;2022-08-01T11:05:12;32.70;99.90
34877;DHT22;21086;44.780;17.194;2022-08-01T11:11:03;32.80;99.90
34877;DHT22;21086;44.780;17.194;2022-08-01T11:16:35;33.10;99.90
34877;DHT22;21086;44.780;17.194;2022-08-01T11:19:04;33.40;99.90
34877;DHT22;21086;44.780;17.194;2022-08-01T11:32:53;33.90;99.90
34877;DHT22;21086;44.780;17.194;2022-08-01T11:35:37;33.20;99.90
34877;DHT22;21086;44.780;17.194;2022-08-01T11:38:24;33.20;99.90
34877;DHT22;21086;44.780;17.194;2022-08-01T11:41:23;33.20;99.90
34877;DHT22;21086;44.780;17.194;2022-08-01T11:44:17;32.10;99.90
34877;DHT22;21086;44.780;17.194;2022-08-01T11:54:45;33.40;99.90
34877;DHT22;21086;44.780;17.194;2022-08-01T11:57:21;33.40;99.90
34877;DHT22;21086;44.780;17.194;2022-08-01T11:59:51;33.40;99.90
34877;DHT22;21086;44.780;17.194;2022-08-01T12:02:32;33.40;99.90
34877;DHT22;21086;44.780;17.194;2022-08-01T12:07:32;33.50;99.90
34877;DHT22;21086;44.780;17.194;2022-08-01T12:10:06;33.60;99.90
34877;DHT22;21086;44.780;17.194;2022-08-01T12:12:35;33.60;99.90
34877;DHT22;21086;44.780;17.194;2022-08-01T12:15:07;33.70;99.90
34877;DHT22;21086;44.780;17.194;2022-08-01T12:17:36;33.70;99.90
34877;DHT22;21086;44.780;17.194;2022-08-01T12:20:06;33.70;99.90
34877;DHT22;21086;44.780;17.194;2022-08-01T12:22:34;33.90;99.90
34877;DHT22;21086;44.780;17.194;2022-08-01T12:25:15;33.80;99.90
34877;DHT22;21086;44.780;17.194;2022-08-01T12:28:03;34.00;99.90
34877;DHT22;21086;44.780;17.194;2022-08-01T12:30:33;33.80;99.90
34877;DHT22;21086;44.780;17.194;2022-08-01T12:33:04;33.70;99.90
34877;DHT22;21086;44.780;17.194;2022-08-01T12:35:32;33.70;99.90
34877;DHT22;21086;44.780;17.194;2022-08-01T12:38:02;33.80;99.90
34877;DHT22;21086;44.780;17.194;2022-08-01T12:40:41;34.00;99.90
34877;DHT22;21086;44.780;17.194;2022-08-01T12:43:19;34.10;99.90
34877;DHT22;21086;44.780;17.194;2022-08-01T12:45:55;34.10;99.90
34877;DHT22;21086;44.780;17.194;2022-08-01T12:48:24;34.10;99.90
34877;DHT22;21086;44.780;17.194;2022-08-01T12:50:53;34.10;99.90
34877;DHT22;21086;44.780;17.194;2022-08-01T12:53:21;33.90;99.90
34877;DHT22;21086;44.780;17.194;2022-08-01T12:55:53;34.30;99.90
34877;DHT22;21086;44.780;17.194;2022-08-01T12:58:34;34.70;99.90
34877;DHT22;21086;44.780;17.194;2022-08-01T13:01:09;35.00;99.90
34877;DHT22;21086;44.780;17.194;2022-08-01T13:03:37;34.90;99.90
34877;DHT22;21086;44.780;17.194;2022-08-01T13:06:12;34.80;99.90
34877;DHT22;21086;44.780;17.194;2022-08-01T13:08:41;34.70;99.90
34877;DHT22;21086;44.780;17.194;2022-08-01T13:11:10;34.70;99.90
34877;DHT22;21086;44.780;17.194;2022-08-01T13:13:49;34.50;99.90
34877;DHT22;21086;44.780;17.194;2022-08-01T13:16:19;35.20;99.90
34877;DHT22;21086;44.780;17.194;2022-08-01T13:19:04;36.50;99.90
34877;DHT22;21086;44.780;17.194;2022-08-01T13:21:32;38.20;99.90
34877;DHT22;21086;44.780;17.194;2022-08-01T13:24:24;39.30;99.90
34877;DHT22;21086;44.780;17.194;2022-08-01T13:26:57;40.90;99.90
34877;DHT22;21086;44.780;17.194;2022-08-01T13:29:38;42.50;99.90
34877;DHT22;21086;44.780;17.194;2022-08-01T13:32:15;43.90;99.90
34877;DHT22;21086;44.780;17.194;2022-08-01T13:35:02;45.40;99.90
34877;DHT22;21086;44.780;17.194;2022-08-01T13:37:29;46.90;99.90
34877;DHT22;21086;44.780;17.194;2022-08-01T13:39:58;47.70;99.90
34877;DHT22;21086;44.780;17.194;2022-08-01T13:42:25;47.90;99.90
34877;DHT22;21086;44.780;17.194;2022-08-01T13:44:52;47.90;99.90
34877;DHT22;21086;44.780;17.194;2022-08-01T13:47:19;48.10;99.90
34877;DHT22;21086;44.780;17.194;2022-08-01T13:49:58;48.40;99.90
34877;DHT22;21086;44.780;17.194;2022-08-01T13:52:28;48.90;99.90
34877;DHT22;21086;44.780;17.194;2022-08-01T13:54:56;49.20;99.90
34877;DHT22;21086;44.780;17.194;2022-08-01T13:57:22;48.80;99.90
34877;DHT22;21086;44.780;17.194;2022-08-01T13:59:49;48.50;99.90
34877;DHT22;21086;44.780;17.194;2022-08-01T14:02:19;48.40;99.90
34877;DHT22;21086;44.780;17.194;2022-08-01T14:04:46;49.20;99.90
34877;DHT22;21086;44.780;17.194;2022-08-01T14:07:13;50.00;99.90
34877;DHT22;21086;44.780;17.194;2022-08-01T14:09:41;50.20;99.90
34877;DHT22;21086;44.780;17.194;2022-08-01T14:12:28;50.50;99.90
34877;DHT22;21086;44.780;17.194;2022-08-01T14:14:55;50.20;99.90
34877;DHT22;21086;44.780;17.194;2022-08-01T14:17:23;50.20;99.90
34877;DHT22;21086;44.780;17.194;2022-08-01T14:19:49;50.40;99.90
34877;DHT22;21086;44.780;17.194;2022-08-01T14:22:17;50.30;99.90
34877;DHT22;21086;44.780;17.194;2022-08-01T14:24:44;50.30;99.90
34877;DHT22;21086;44.780;17.194;2022-08-01T14:27:11;50.50;99.90
34877;DHT22;21086;44.780;17.194;2022-08-01T14:29:38;50.20;99.90
34877;DHT22;21086;44.780;17.194;2022-08-01T14:32:24;49.70;99.90
34877;DHT22;21086;44.780;17.194;2022-08-01T14:34:55;49.40;99.90
34877;DHT22;21086;44.780;17.194;2022-08-01T14:37:22;48.90;99.90
34877;DHT22;21086;44.780;17.194;2022-08-01T14:39:57;48.70;99.90
34877;DHT22;21086;44.780;17.194;2022-08-01T14:42:25;49.10;99.90
34877;DHT22;21086;44.780;17.194;2022-08-01T14:44:52;49.60;99.90
34877;DHT22;21086;44.780;17.194;2022-08-01T14:47:20;49.90;99.90
34877;DHT22;21086;44.780;17.194;2022-08-01T14:49:49;48.90;99.90
34877;DHT22;21086;44.780;17.194;2022-08-01T14:52:16;48.30;99.90
34877;DHT22;21086;44.780;17.194;2022-08-01T14:54:43;48.40;99.90
34877;DHT22;21086;44.780;17.194;2022-08-01T14:57:10;48.70;99.90
34877;DHT22;21086;44.780;17.194;2022-08-01T14:59:37;48.80;99.90
34877;DHT22;21086;44.780;17.194;2022-08-01T15:02:04;48.70;99.90
34877;DHT22;21086;44.780;17.194;2022-08-01T15:04:31;48.70;99.90
34877;DHT22;21086;44.780;17.194;2022-08-01T15:06:58;49.20;99.90
34877;DHT22;21086;44.780;17.194;2022-08-01T15:09:25;49.60;99.90
34877;DHT22;21086;44.780;17.194;2022-08-01T15:11:52;48.50;99.90
34877;DHT22;21086;44.780;17.194;2022-08-01T15:14:19;47.50;99.90
34877;DHT22;21086;44.780;17.194;2022-08-01T15:17:04;47.50;99.90
34877;DHT22;21086;44.780;17.194;2022-08-01T15:19:33;47.40;99.90
34877;DHT22;21086;44.780;17.194;2022-08-01T15:22:06;47.90;99.90
34877;DHT22;21086;44.780;17.194;2022-08-01T15:24:34;47.90;99.90
34877;DHT22;21086;44.780;17.194;2022-08-01T15:27:00;47.50;99.90
34877;DHT22;21086;44.780;17.194;2022-08-01T15:29:28;48.10;99.90
34877;DHT22;21086;44.780;17.194;2022-08-01T15:31:55;48.60;99.90
34877;DHT22;21086;44.780;17.194;2022-08-01T15:34:23;48.80;99.90
34877;DHT22;21086;44.780;17.194;2022-08-01T15:36:50;48.90;99.90
34877;DHT22;21086;44.780;17.194;2022-08-01T15:39:17;49.30;99.90
34877;DHT22;21086;44.780;17.194;2022-08-01T15:41:44;49.30;99.90
34877;DHT22;21086;44.780;17.194;2022-08-01T15:44:11;48.90;99.90
34877;DHT22;21086;44.780;17.194;2022-08-01T15:46:38;48.80;99.90
34877;DHT22;21086;44.780;17.194;2022-08-01T15:49:05;48.40;99.90
34877;DHT22;21086;44.780;17.194;2022-08-01T15:51:33;48.30;99.90
34877;DHT22;21086;44.780;17.194;2022-08-01T15:54:00;48.20;99.90
34877;DHT22;21086;44.780;17.194;2022-08-01T15:56:37;47.90;99.90
34877;DHT22;21086;44.780;17.194;2022-08-01T15:59:05;47.70;99.90
34877;DHT22;21086;44.780;17.194;2022-08-01T16:01:32;47.30;99.90
34877;DHT22;21086;44.780;17.194;2022-08-01T16:04:00;47.00;99.90
34877;DHT22;21086;44.780;17.194;2022-08-01T16:06:27;47.00;99.90
34877;DHT22;21086;44.780;17.194;2022-08-01T16:08:54;47.20;99.90
34877;DHT22;21086;44.780;17.194;2022-08-01T16:11:21;46.90;99.90
34877;DHT22;21086;44.780;17.194;2022-08-01T16:13:49;46.90;99.90
34877;DHT22;21086;44.780;17.194;2022-08-01T16:16:16;46.30;99.90
34877;DHT22;21086;44.780;17.194;2022-08-01T16:18:44;46.00;99.90
34877;DHT22;21086;44.780;17.194;2022-08-01T16:21:19;46.20;99.90
34877;DHT22;21086;44.780;17.194;2022-08-01T16:23:46;46.00;99.90
34877;DHT22;21086;44.780;17.194;2022-08-01T16:26:14;45.90;99.90
34877;DHT22;21086;44.780;17.194;2022-08-01T16:28:53;45.80;99.90
34877;DHT22;21086;44.780;17.194;2022-08-01T16:31:20;45.40;99.90
34877;DHT22;21086;44.780;17.194;2022-08-01T16:34:07;44.90;99.90
34877;DHT22;21086;44.780;17.194;2022-08-01T16:36:35;44.30;99.90
34877;DHT22;21086;44.780;17.194;2022-08-01T16:39:02;43.80;99.90
34877;DHT22;21086;44.780;17.194;2022-08-01T16:41:30;43.30;99.90
34877;DHT22;21086;44.780;17.194;2022-08-01T16:44:03;42.50;99.90
34877;DHT22;21086;44.780;17.194;2022-08-01T16:46:32;41.80;99.90
34877;DHT22;21086;44.780;17.194;2022-08-01T16:48:58;40.70;99.90
34877;DHT22;21086;44.780;17.194;2022-08-01T16:51:26;39.90;99.90
34877;DHT22;21086;44.780;17.194;2022-08-01T16:53:53;39.20;99.90
34877;DHT22;21086;44.780;17.194;2022-08-01T16:56:20;38.70;99.90
34877;DHT22;21086;44.780;17.194;2022-08-01T16:58:47;38.40;99.90
34877;DHT22;21086;44.780;17.194;2022-08-01T17:01:14;38.30;99.90
34877;DHT22;21086;44.780;17.194;2022-08-01T17:04:03;38.20;99.90
34877;DHT22;21086;44.780;17.194;2022-08-01T17:06:31;37.90;99.90
34877;DHT22;21086;44.780;17.194;2022-08-01T17:08:57;37.80;99.90
34877;DHT22;21086;44.780;17.194;2022-08-01T17:11:24;37.70;99.90
34877;DHT22;21086;44.780;17.194;2022-08-01T17:13:52;37.40;99.90
34877;DHT22;21086;44.780;17.194;2022-08-01T17:16:19;36.80;99.90
34877;DHT22;21086;44.780;17.194;2022-08-01T17:18:46;36.40;99.90
34877;DHT22;21086;44.780;17.194;2022-08-01T17:21:13;36.10;99.90
34877;DHT22;21086;44.780;17.194;2022-08-01T17:23:40;35.70;99.90
34877;DHT22;21086;44.780;17.194;2022-08-01T17:26:07;35.50;99.90
34877;DHT22;21086;44.780;17.194;2022-08-01T17:28:34;35.30;99.90
34877;DHT22;21086;44.780;17.194;2022-08-01T17:31:01;34.90;99.90
34877;DHT22;21086;44.780;17.194;2022-08-01T17:33:34;34.60;99.90
34877;DHT22;21086;44.780;17.194;2022-08-01T17:36:12;34.30;99.90
34877;DHT22;21086;44.780;17.194;2022-08-01T17:38:39;33.80;99.90
34877;DHT22;21086;44.780;17.194;2022-08-01T17:41:06;33.50;99.90
34877;DHT22;21086;44.780;17.194;2022-08-01T17:43:34;33.30;99.90
34877;DHT22;21086;44.780;17.194;2022-08-01T17:46:01;33.10;99.90
34877;DHT22;21086;44.780;17.194;2022-08-01T17:48:27;32.90;99.90
34877;DHT22;21086;44.780;17.194;2022-08-01T17:50:56;32.50;99.90
34877;DHT22;21086;44.780;17.194;2022-08-01T17:53:23;32.30;99.90
34877;DHT22;21086;44.780;17.194;2022-08-01T17:55:50;32.00;99.90
34877;DHT22;21086;44.780;17.194;2022-08-01T17:58:22;31.80;99.90
34877;DHT22;21086;44.780;17.194;2022-08-01T18:01:09;31.50;99.90
34877;DHT22;21086;44.780;17.194;2022-08-01T18:03:36;31.30;99.90
34877;DHT22;21086;44.780;17.194;2022-08-01T18:06:11;31.10;99.90
34877;DHT22;21086;44.780;17.194;2022-08-01T18:08:40;30.80;99.90
34877;DHT22;21086;44.780;17.194;2022-08-01T18:11:08;30.60;99.90
34877;DHT22;21086;44.780;17.194;2022-08-01T18:13:35;30.30;99.90
34877;DHT22;21086;44.780;17.194;2022-08-01T18:16:07;30.10;99.90
34877;DHT22;21086;44.780;17.194;2022-08-01T18:18:35;29.90;99.90
34877;DHT22;21086;44.780;17.194;2022-08-01T18:21:02;29.70;99.90
34877;DHT22;21086;44.780;17.194;2022-08-01T18:23:30;29.50;99.90
34877;DHT22;21086;44.780;17.194;2022-08-01T18:26:00;29.40;99.90
34877;DHT22;21086;44.780;17.194;2022-08-01T18:28:29;29.20;99.90
34877;DHT22;21086;44.780;17.194;2022-08-01T18:31:05;29.00;99.90
34877;DHT22;21086;44.780;17.194;2022-08-01T18:33:34;28.30;99.90
34877;DHT22;21086;44.780;17.194;2022-08-01T18:36:01;28.80;99.90
34877;DHT22;21086;44.780;17.194;2022-08-01T18:38:31;28.80;99.90
34877;DHT22;21086;44.780;17.194;2022-08-01T18:40:59;28.70;99.90
34877;DHT22;21086;44.780;17.194;2022-08-01T18:43:26;28.70;99.90
34877;DHT22;21086;44.780;17.194;2022-08-01T18:45:54;28.70;99.90
34877;DHT22;21086;44.780;17.194;2022-08-01T18:48:23;28.70;99.90
34877;DHT22;21086;44.780;17.194;2022-08-01T18:50:50;28.60;99.90
34877;DHT22;21086;44.780;17.194;2022-08-01T18:53:20;28.50;99.90
34877;DHT22;21086;44.780;17.194;2022-08-01T18:55:48;28.50;99.90
34877;DHT22;21086;44.780;17.194;2022-08-01T18:58:15;28.50;99.90
34877;DHT22;21086;44.780;17.194;2022-08-01T19:00:42;28.40;99.90
34877;DHT22;21086;44.780;17.194;2022-08-01T19:03:09;28.40;99.90
34877;DHT22;21086;44.780;17.194;2022-08-01T19:05:36;28.30;99.90
34877;DHT22;21086;44.780;17.194;2022-08-01T19:08:03;28.30;99.90
34877;DHT22;21086;44.780;17.194;2022-08-01T19:10:40;28.20;99.90
34877;DHT22;21086;44.780;17.194;2022-08-01T19:13:08;28.10;99.90
34877;DHT22;21086;44.780;17.194;2022-08-01T19:15:35;28.10;99.90
34877;DHT22;21086;44.780;17.194;2022-08-01T19:18:03;28.00;99.90
34877;DHT22;21086;44.780;17.194;2022-08-01T19:20:30;27.90;99.90
34877;DHT22;21086;44.780;17.194;2022-08-01T19:22:57;27.80;99.90
34877;DHT22;21086;44.780;17.194;2022-08-01T19:25:24;27.80;99.90
34877;DHT22;21086;44.780;17.194;2022-08-01T19:27:53;27.80;99.90
34877;DHT22;21086;44.780;17.194;2022-08-01T19:30:22;27.80;99.90
34877;DHT22;21086;44.780;17.194;2022-08-01T19:32:50;27.70;99.90
34877;DHT22;21086;44.780;17.194;2022-08-01T19:35:17;27.60;99.90
34877;DHT22;21086;44.780;17.194;2022-08-01T19:37:44;27.60;99.90
34877;DHT22;21086;44.780;17.194;2022-08-01T19:40:15;27.60;99.90
34877;DHT22;21086;44.780;17.194;2022-08-01T19:42:55;27.60;99.90
34877;DHT22;21086;44.780;17.194;2022-08-01T19:45:23;27.50;99.90
34877;DHT22;21086;44.780;17.194;2022-08-01T19:47:51;27.50;99.90
34877;DHT22;21086;44.780;17.194;2022-08-01T19:50:25;27.40;99.90
34877;DHT22;21086;44.780;17.194;2022-08-01T19:52:56;27.30;99.90
34877;DHT22;21086;44.780;17.194;2022-08-01T19:55:26;27.30;99.90
34877;DHT22;21086;44.780;17.194;2022-08-01T19:57:56;27.30;99.90
34877;DHT22;21086;44.780;17.194;2022-08-01T20:00:43;27.20;99.90
34877;DHT22;21086;44.780;17.194;2022-08-01T20:03:14;27.10;99.90
34877;DHT22;21086;44.780;17.194;2022-08-01T20:05:43;27.10;99.90
34877;DHT22;21086;44.780;17.194;2022-08-01T20:08:11;27.00;99.90
34877;DHT22;21086;44.780;17.194;2022-08-01T20:10:39;27.00;99.90
34877;DHT22;21086;44.780;17.194;2022-08-01T20:13:07;26.90;99.90
34877;DHT22;21086;44.780;17.194;2022-08-01T20:15:37;26.90;99.90
34877;DHT22;21086;44.780;17.194;2022-08-01T20:18:04;26.80;99.90
34877;DHT22;21086;44.780;17.194;2022-08-01T20:20:32;26.80;99.90
34877;DHT22;21086;44.780;17.194;2022-08-01T20:23:01;26.70;99.90
34877;DHT22;21086;44.780;17.194;2022-08-01T20:25:29;26.70;99.90
34877;DHT22;21086;44.780;17.194;2022-08-01T20:28:08;26.60;99.90
34877;DHT22;21086;44.780;17.194;2022-08-01T20:30:39;26.60;99.90
34877;DHT22;21086;44.780;17.194;2022-08-01T20:33:08;26.60;99.90
34877;DHT22;21086;44.780;17.194;2022-08-01T20:35:37;26.50;99.90
34877;DHT22;21086;44.780;17.194;2022-08-01T20:38:25;26.50;99.90
34877;DHT22;21086;44.780;17.194;2022-08-01T20:40:55;26.40;99.90
34877;DHT22;21086;44.780;17.194;2022-08-01T20:43:25;26.40;99.90
34877;DHT22;21086;44.780;17.194;2022-08-01T20:45:54;26.30;99.90
34877;DHT22;21086;44.780;17.194;2022-08-01T20:48:22;26.20;99.90
34877;DHT22;21086;44.780;17.194;2022-08-01T20:50:50;26.20;99.90
34877;DHT22;21086;44.780;17.194;2022-08-01T20:53:37;26.00;99.90
34877;DHT22;21086;44.780;17.194;2022-08-01T20:56:15;25.90;99.90
34877;DHT22;21086;44.780;17.194;2022-08-01T21:01:19;25.70;99.90
34877;DHT22;21086;44.780;17.194;2022-08-01T21:04:13;25.60;99.90
34877;DHT22;21086;44.780;17.194;2022-08-01T21:07:08;25.50;99.90
34877;DHT22;21086;44.780;17.194;2022-08-01T21:09:37;25.40;99.90
34877;DHT22;21086;44.780;17.194;2022-08-01T21:12:10;25.40;99.90
34877;DHT22;21086;44.780;17.194;2022-08-01T21:14:56;25.30;99.90
34877;DHT22;21086;44.780;17.194;2022-08-01T21:17:35;25.30;99.90
34877;DHT22;21086;44.780;17.194;2022-08-01T21:20:05;25.30;99.90
34877;DHT22;21086;44.780;17.194;2022-08-01T21:23:10;25.20;99.90
34877;DHT22;21086;44.780;17.194;2022-08-01T21:25:41;25.20;99.90
34877;DHT22;21086;44.780;17.194;2022-08-01T21:28:11;25.20;99.90
34877;DHT22;21086;44.780;17.194;2022-08-01T21:30:39;25.10;99.90
34877;DHT22;21086;44.780;17.194;2022-08-01T21:33:11;25.10;99.90
34877;DHT22;21086;44.780;17.194;2022-08-01T21:35:39;25.00;99.90
34877;DHT22;21086;44.780;17.194;2022-08-01T21:38:06;24.90;99.90
34877;DHT22;21086;44.780;17.194;2022-08-01T21:40:34;24.90;99.90
34877;DHT22;21086;44.780;17.194;2022-08-01T21:43:03;24.80;99.90
34877;DHT22;21086;44.780;17.194;2022-08-01T21:45:30;24.80;99.90
34877;DHT22;21086;44.780;17.194;2022-08-01T21:47:57;24.80;99.90
34877;DHT22;21086;44.780;17.194;2022-08-01T21:50:25;24.80;99.90
34877;DHT22;21086;44.780;17.194;2022-08-01T21:53:15;24.80;99.90
34877;DHT22;21086;44.780;17.194;2022-08-01T21:56:04;24.80;99.90
34877;DHT22;21086;44.780;17.194;2022-08-01T21:58:51;24.80;99.90
34877;DHT22;21086;44.780;17.194;2022-08-01T22:01:39;24.80;99.90
34877;DHT22;21086;44.780;17.194;2022-08-01T22:04:26;24.80;99.90
34877;DHT22;21086;44.780;17.194;2022-08-01T22:06:57;24.70;99.90
34877;DHT22;21086;44.780;17.194;2022-08-01T22:09:25;24.70;99.90
34877;DHT22;21086;44.780;17.194;2022-08-01T22:11:53;24.60;99.90
34877;DHT22;21086;44.780;17.194;2022-08-01T22:14:28;24.70;99.90
34877;DHT22;21086;44.780;17.194;2022-08-01T22:16:58;24.70;99.90
34877;DHT22;21086;44.780;17.194;2022-08-01T22:19:26;24.70;99.90
34877;DHT22;21086;44.780;17.194;2022-08-01T22:22:10;25.00;99.90
34877;DHT22;21086;44.780;17.194;2022-08-01T22:24:58;24.90;99.90
34877;DHT22;21086;44.780;17.194;2022-08-01T22:27:25;24.80;99.90
34877;DHT22;21086;44.780;17.194;2022-08-01T22:30:14;24.80;99.90
34877;DHT22;21086;44.780;17.194;2022-08-01T22:32:42;24.70;99.90
34877;DHT22;21086;44.780;17.194;2022-08-01T22:35:30;24.80;99.90
34877;DHT22;21086;44.780;17.194;2022-08-01T22:37:57;24.80;99.90
34877;DHT22;21086;44.780;17.194;2022-08-01T22:40:27;24.70;99.90
34877;DHT22;21086;44.780;17.194;2022-08-01T22:42:57;24.70;99.90
34877;DHT22;21086;44.780;17.194;2022-08-01T22:45:41;24.60;99.90
34877;DHT22;21086;44.780;17.194;2022-08-01T22:48:24;24.30;99.90
34877;DHT22;21086;44.780;17.194;2022-08-01T22:51:05;24.30;99.90
34877;DHT22;21086;44.780;17.194;2022-08-01T22:53:40;24.20;99.90
34877;DHT22;21086;44.780;17.194;2022-08-01T22:56:09;24.20;99.90
34877;DHT22;21086;44.780;17.194;2022-08-01T22:58:39;24.10;99.90
34877;DHT22;21086;44.780;17.194;2022-08-01T23:01:11;24.10;99.90
34877;DHT22;21086;44.780;17.194;2022-08-01T23:03:49;23.90;99.90
34877;DHT22;21086;44.780;17.194;2022-08-01T23:06:33;23.90;99.90
34877;DHT22;21086;44.780;17.194;2022-08-01T23:09:03;23.90;99.90
34877;DHT22;21086;44.780;17.194;2022-08-01T23:11:30;23.90;99.90
34877;DHT22;21086;44.780;17.194;2022-08-01T23:14:01;23.90;99.90
34877;DHT22;21086;44.780;17.194;2022-08-01T23:16:29;24.10;99.90
34877;DHT22;21086;44.780;17.194;2022-08-01T23:19:00;24.20;99.90
34877;DHT22;21086;44.780;17.194;2022-08-01T23:21:27;24.00;99.90
34877;DHT22;21086;44.780;17.194;2022-08-01T23:23:55;24.10;99.90
34877;DHT22;21086;44.780;17.194;2022-08-01T23:26:25;24.00;99.90
34877;DHT22;21086;44.780;17.194;2022-08-01T23:28:56;23.90;99.90